createdAt,value
2019-01-09T00:01:03.962Z,1.10
2019-01-09T00:03:33.230Z,1.40
2019-01-09T00:06:02.266Z,1.50
2019-01-09T00:08:31.330Z,1.00
2019-01-09T00:11:00.311Z,1.13
2019-01-09T00:13:29.232Z,1.05
2019-01-09T00:15:58.269Z,1.30
2019-01-09T00:18:27.180Z,1.57
2019-01-09T00:20:56.270Z,1.10
2019-01-09T00:23:25.296Z,1.22
2019-01-09T00:25:54.562Z,1.35
2019-01-09T00:28:23.584Z,1.20
2019-01-09T00:30:52.514Z,1.30
2019-01-09T00:33:21.873Z,1.32
2019-01-09T00:35:50.844Z,1.60
2019-01-09T00:38:19.745Z,1.10
2019-01-09T00:40:48.784Z,1.50
2019-01-09T00:43:18.167Z,0.82
2019-01-09T00:45:47.467Z,1.20
2019-01-09T00:48:16.475Z,0.80
2019-01-09T00:50:45.471Z,1.30
2019-01-09T00:53:14.450Z,1.35
2019-01-09T00:55:43.791Z,1.10
2019-01-09T00:58:12.791Z,1.27
2019-01-09T01:00:41.903Z,1.22
2019-01-09T01:03:42.098Z,1.70
2019-01-09T01:06:46.917Z,0.90
2019-01-09T01:09:52.944Z,1.32
2019-01-09T01:13:02.346Z,0.83
2019-01-09T01:16:21.196Z,1.10
2019-01-09T01:19:46.133Z,1.07
2019-01-09T01:22:41.952Z,1.37
2019-01-09T01:25:45.770Z,1.20
2019-01-09T01:29:27.449Z,1.40
2019-01-09T01:32:40.803Z,1.80
2019-01-09T01:35:31.211Z,1.85
2019-01-09T01:39:03.212Z,1.52
2019-01-09T01:41:52.261Z,1.60
2019-01-09T01:44:40.791Z,1.30
2019-01-09T01:48:03.077Z,1.70
2019-01-09T01:51:04.478Z,1.50
2019-01-09T01:54:15.445Z,2.25
2019-01-09T01:57:09.842Z,1.70
2019-01-09T01:59:54.538Z,1.90
2019-01-09T02:03:01.612Z,2.07
2019-01-09T02:06:16.821Z,2.53
2019-01-09T02:09:10.828Z,2.10
2019-01-09T02:12:26.812Z,2.27
2019-01-09T02:15:36.026Z,2.20
2019-01-09T02:18:17.356Z,2.95
2019-01-09T02:21:23.847Z,2.77
2019-01-09T02:24:29.936Z,2.08
2019-01-09T02:27:30.881Z,2.27
2019-01-09T02:30:43.007Z,2.83
2019-01-09T02:33:12.413Z,2.58
2019-01-09T02:35:41.323Z,2.65
2019-01-09T02:38:10.284Z,2.22
2019-01-09T02:40:39.512Z,3.10
2019-01-09T02:43:08.786Z,2.60
2019-01-09T02:45:37.695Z,2.10
2019-01-09T02:48:06.524Z,2.08
2019-01-09T02:50:35.413Z,2.40
2019-01-09T02:53:04.463Z,2.37
2019-01-09T02:55:33.386Z,2.27
2019-01-09T02:58:06.201Z,2.52
2019-01-09T03:00:35.244Z,2.00
2019-01-09T03:03:04.210Z,1.77
2019-01-09T03:05:33.280Z,1.83
2019-01-09T03:08:02.431Z,2.20
2019-01-09T03:10:31.352Z,2.58
2019-01-09T03:13:01.000Z,1.87
2019-01-09T03:15:30.425Z,2.27
2019-01-09T03:17:59.410Z,1.75
2019-01-09T03:20:28.371Z,1.90
2019-01-09T03:22:57.320Z,1.80
2019-01-09T03:25:26.641Z,2.10
2019-01-09T03:27:56.124Z,2.00
2019-01-09T03:30:25.138Z,2.25
2019-01-09T03:32:54.417Z,2.50
2019-01-09T03:35:23.307Z,2.08
2019-01-09T03:37:52.329Z,2.15
2019-01-09T03:40:21.357Z,2.20
2019-01-09T03:42:50.338Z,3.37
2019-01-09T03:45:19.312Z,1.95
2019-01-09T03:47:48.140Z,2.40
2019-01-09T03:50:17.136Z,2.45
2019-01-09T03:52:45.954Z,2.20
2019-01-09T03:55:15.539Z,2.60
2019-01-09T03:57:44.723Z,2.42
2019-01-09T04:00:13.735Z,2.02
2019-01-09T04:02:43.016Z,2.30
2019-01-09T04:05:11.955Z,1.95
2019-01-09T04:07:40.932Z,2.20
2019-01-09T04:10:10.228Z,2.60
2019-01-09T04:12:39.822Z,2.33
2019-01-09T04:15:09.349Z,2.20
2019-01-09T04:17:38.634Z,2.25
2019-01-09T04:20:07.491Z,2.35
2019-01-09T04:22:36.603Z,2.50
2019-01-09T04:25:05.634Z,3.00
2019-01-09T04:27:34.522Z,2.35
2019-01-09T04:30:03.534Z,2.02
2019-01-09T04:32:32.902Z,1.70
2019-01-09T04:35:01.858Z,2.45
2019-01-09T04:37:30.831Z,1.73
2019-01-09T04:39:59.677Z,1.90
2019-01-09T04:42:28.890Z,1.75
2019-01-09T04:44:57.828Z,2.12
2019-01-09T04:47:26.823Z,1.50
2019-01-09T04:49:55.731Z,1.95
2019-01-09T04:52:24.819Z,2.50
2019-01-09T04:54:53.743Z,2.20
2019-01-09T04:57:23.135Z,2.43
2019-01-09T04:59:51.989Z,2.20
2019-01-09T05:02:20.831Z,2.33
2019-01-09T05:04:50.006Z,1.90
2019-01-09T05:07:19.036Z,2.10
2019-01-09T05:09:47.853Z,2.12
2019-01-09T05:12:16.890Z,2.30
2019-01-09T05:14:45.809Z,1.98
2019-01-09T05:17:15.118Z,2.58
2019-01-09T05:19:44.095Z,2.20
2019-01-09T05:22:12.942Z,1.97
2019-01-09T05:24:41.783Z,1.82
2019-01-09T05:27:10.677Z,2.08
2019-01-09T05:29:39.589Z,1.85
2019-01-09T05:32:08.609Z,2.10
2019-01-09T05:34:37.507Z,2.17
2019-01-09T05:37:09.738Z,2.02
2019-01-09T05:39:39.799Z,1.95
2019-01-09T05:42:07.755Z,2.10
2019-01-09T05:44:36.598Z,2.10
2019-01-09T05:47:05.572Z,2.08
2019-01-09T05:49:34.833Z,1.22
2019-01-09T05:52:03.794Z,0.80
2019-01-09T05:54:32.653Z,2.60
2019-01-09T05:57:01.486Z,1.00
2019-01-09T05:59:31.481Z,1.12
2019-01-09T06:02:00.726Z,0.53
2019-01-09T06:04:29.583Z,0.60
2019-01-09T06:06:58.825Z,0.60
2019-01-09T06:09:27.822Z,0.78
2019-01-09T06:11:56.939Z,0.63
2019-01-09T06:14:26.210Z,0.62
2019-01-09T06:16:55.396Z,0.50
2019-01-09T06:19:24.286Z,0.50
2019-01-09T06:21:54.308Z,0.50
2019-01-09T06:24:23.209Z,0.33
2019-01-09T06:26:52.324Z,0.40
2019-01-09T06:29:22.604Z,0.40
2019-01-09T06:31:51.917Z,0.70
2019-01-09T06:34:21.120Z,0.60
2019-01-09T06:36:50.226Z,0.87
2019-01-09T06:39:19.061Z,0.57
2019-01-09T06:41:48.099Z,0.50
2019-01-09T06:44:16.952Z,0.40
2019-01-09T06:46:46.702Z,0.40
2019-01-09T06:49:16.159Z,0.35
2019-01-09T06:51:44.969Z,0.27
2019-01-09T06:54:13.923Z,0.55
2019-01-09T06:56:42.850Z,0.70
2019-01-09T06:59:11.936Z,0.60
2019-01-09T07:01:41.122Z,0.67
2019-01-09T07:04:10.055Z,0.60
2019-01-09T07:06:38.908Z,0.60
2019-01-09T07:09:08.547Z,0.90
2019-01-09T07:11:37.767Z,1.10
2019-01-09T07:14:07.369Z,1.95
2019-01-09T07:16:36.744Z,2.07
2019-01-09T07:19:05.786Z,1.85
2019-01-09T07:21:34.874Z,2.40
2019-01-09T07:24:03.896Z,2.98
2019-01-09T07:26:32.954Z,2.87
2019-01-09T07:29:02.169Z,2.77
2019-01-09T07:31:31.420Z,2.60
2019-01-09T07:34:00.799Z,2.98
2019-01-09T07:36:30.146Z,3.00
2019-01-09T07:38:59.386Z,3.27
2019-01-09T07:41:28.739Z,3.20
2019-01-09T07:43:57.807Z,4.20
2019-01-09T07:46:26.670Z,3.58
2019-01-09T07:48:55.755Z,3.67
2019-01-09T07:51:24.576Z,4.00
2019-01-09T07:53:56.196Z,3.50
2019-01-09T07:56:24.560Z,4.17
2019-01-09T07:58:53.465Z,4.80
2019-01-09T08:01:22.781Z,3.77
2019-01-09T08:03:52.034Z,3.92
2019-01-09T08:06:20.958Z,3.80
2019-01-09T08:08:49.931Z,3.92
2019-01-09T08:11:18.755Z,3.90
2019-01-09T08:13:47.594Z,3.55
2019-01-09T08:16:16.567Z,3.90
2019-01-09T08:18:45.596Z,3.40
2019-01-09T08:21:14.699Z,3.37
2019-01-09T08:23:43.707Z,3.00
2019-01-09T08:26:13.239Z,3.53
2019-01-09T08:28:42.446Z,2.55
2019-01-09T08:31:11.343Z,2.70
2019-01-09T08:33:40.519Z,2.37
2019-01-09T08:36:09.798Z,2.33
2019-01-09T08:38:38.758Z,2.87
2019-01-09T08:41:08.052Z,2.90
2019-01-09T08:43:36.973Z,2.25
2019-01-09T08:46:05.866Z,2.43
2019-01-09T08:48:35.170Z,2.20
2019-01-09T08:51:04.167Z,2.50
2019-01-09T08:53:33.470Z,3.00
2019-01-09T08:56:02.386Z,2.72
2019-01-09T08:58:31.246Z,2.65
2019-01-09T09:01:00.620Z,2.30
2019-01-09T09:03:29.452Z,2.20
2019-01-09T09:05:58.397Z,2.40
2019-01-09T09:08:27.970Z,2.77
2019-01-09T09:10:57.108Z,3.57
2019-01-09T09:13:38.042Z,2.72
2019-01-09T09:16:08.680Z,2.60
2019-01-09T09:18:38.017Z,2.67
2019-01-09T09:21:07.019Z,3.00
2019-01-09T09:23:35.898Z,2.83
2019-01-09T09:26:05.506Z,3.10
2019-01-09T09:28:34.418Z,2.87
2019-01-09T09:31:05.262Z,3.30
2019-01-09T09:33:34.502Z,2.92
2019-01-09T09:36:03.699Z,2.70
2019-01-09T09:38:32.849Z,3.35
2019-01-09T09:41:02.125Z,3.43
2019-01-09T09:43:31.131Z,2.60
2019-01-09T09:46:00.239Z,2.63
2019-01-09T09:48:29.524Z,2.50
2019-01-09T09:50:58.430Z,2.85
2019-01-09T09:53:27.455Z,2.75
2019-01-09T09:55:56.410Z,2.47
2019-01-09T09:58:25.445Z,2.30
2019-01-09T10:00:54.992Z,2.47
2019-01-09T10:03:23.923Z,2.70
2019-01-09T10:05:52.835Z,2.63
2019-01-09T10:08:29.366Z,3.00
2019-01-09T10:10:52.435Z,2.30
2019-01-09T10:13:21.430Z,3.33
2019-01-09T10:15:50.341Z,2.10
2019-01-09T10:18:19.307Z,2.17
2019-01-09T10:20:48.236Z,2.00
2019-01-09T10:23:17.189Z,1.92
2019-01-09T10:25:46.117Z,2.30
2019-01-09T10:28:15.400Z,1.77
2019-01-09T10:30:44.291Z,1.75
2019-01-09T10:33:13.322Z,2.30
2019-01-09T10:35:42.562Z,2.10
2019-01-09T10:38:11.479Z,2.27
2019-01-09T10:40:40.420Z,1.82
2019-01-09T10:43:09.938Z,2.25
2019-01-09T10:45:38.750Z,1.67
2019-01-09T10:48:07.648Z,1.87
2019-01-09T10:50:37.206Z,2.37
2019-01-09T10:53:06.427Z,2.00
2019-01-09T10:55:35.394Z,1.53
2019-01-09T10:58:04.399Z,1.60
2019-01-09T11:00:33.664Z,1.90
2019-01-09T11:03:02.646Z,1.60
2019-01-09T11:05:31.995Z,2.23
2019-01-09T11:08:01.011Z,2.20
2019-01-09T11:10:30.039Z,2.00
2019-01-09T11:12:58.998Z,2.55
2019-01-09T11:15:28.033Z,2.23
2019-01-09T11:17:56.851Z,1.95
2019-01-09T11:20:25.665Z,2.47
2019-01-09T11:22:54.526Z,2.27
2019-01-09T11:25:26.123Z,1.90
2019-01-09T11:27:55.164Z,1.82
2019-01-09T11:30:24.151Z,2.00
2019-01-09T11:32:53.210Z,1.82
2019-01-09T11:35:24.196Z,1.95
2019-01-09T11:37:53.393Z,1.90
2019-01-09T11:40:22.994Z,1.98
2019-01-09T11:42:51.988Z,3.10
2019-01-09T11:45:21.123Z,2.10
2019-01-09T11:47:50.180Z,1.98
2019-01-09T11:50:19.508Z,1.45
2019-01-09T11:52:48.426Z,2.85
2019-01-09T11:55:17.419Z,1.80
2019-01-09T11:57:46.412Z,2.08
2019-01-09T12:00:26.564Z,1.80
2019-01-09T12:02:56.042Z,1.72
2019-01-09T12:05:25.292Z,1.47
2019-01-09T12:07:54.280Z,1.65
2019-01-09T12:10:29.842Z,1.30
2019-01-09T12:12:55.334Z,1.57
2019-01-09T12:15:24.291Z,1.40
2019-01-09T12:17:53.791Z,1.25
2019-01-09T12:20:23.949Z,1.30
2019-01-09T12:22:52.970Z,1.45
2019-01-09T12:25:21.966Z,1.30
2019-01-09T12:27:50.851Z,1.75
2019-01-09T12:30:24.738Z,1.20
2019-01-09T12:32:53.733Z,1.55
2019-01-09T12:35:22.906Z,1.17
2019-01-09T12:37:52.543Z,1.12
2019-01-09T12:40:21.716Z,1.37
2019-01-09T12:42:50.766Z,0.90
2019-01-09T12:45:20.121Z,1.22
2019-01-09T12:47:49.037Z,0.78
2019-01-09T12:50:23.250Z,0.93
2019-01-09T12:52:52.828Z,0.95
2019-01-09T12:55:22.315Z,0.93
2019-01-09T12:57:51.648Z,1.37
2019-01-09T13:00:26.361Z,1.30
2019-01-09T13:02:55.641Z,1.10
2019-01-09T13:05:24.972Z,1.32
2019-01-09T13:07:54.354Z,1.30
2019-01-09T13:10:23.575Z,1.30
2019-01-09T13:12:53.147Z,1.32
2019-01-09T13:15:22.067Z,1.20
2019-01-09T13:17:50.906Z,1.07
2019-01-09T13:20:19.897Z,0.85
2019-01-09T13:22:48.851Z,1.32
2019-01-09T13:25:17.801Z,0.95
2019-01-09T13:27:46.605Z,1.00
2019-01-09T13:30:17.904Z,0.98
2019-01-09T13:32:47.349Z,1.45
2019-01-09T13:35:17.222Z,1.02
2019-01-09T13:37:46.484Z,1.20
2019-01-09T13:40:17.265Z,1.40
2019-01-09T13:42:46.506Z,0.98
2019-01-09T13:45:17.488Z,1.10
2019-01-09T13:47:46.571Z,1.22
2019-01-09T13:50:15.822Z,0.80
2019-01-09T13:52:44.892Z,1.07
2019-01-09T13:55:14.394Z,1.00
2019-01-09T13:57:43.335Z,0.90
2019-01-09T14:00:15.422Z,1.12
2019-01-09T14:02:44.407Z,0.72
2019-01-09T14:05:13.552Z,0.78
2019-01-09T14:07:42.479Z,0.90
2019-01-09T14:10:14.003Z,1.00
2019-01-09T14:12:43.106Z,1.10
2019-01-09T14:15:14.568Z,0.70
2019-01-09T14:17:43.474Z,1.25
2019-01-09T14:20:12.956Z,0.95
2019-01-09T14:22:41.887Z,0.90
2019-01-09T14:25:11.836Z,1.10
2019-01-09T14:27:40.711Z,1.05
2019-01-09T14:30:13.662Z,0.90
2019-01-09T14:32:42.628Z,1.00
2019-01-09T14:35:11.616Z,0.95
2019-01-09T14:37:40.905Z,1.20
2019-01-09T14:40:11.625Z,1.25
2019-01-09T14:42:40.653Z,1.15
2019-01-09T14:45:10.338Z,2.02
2019-01-09T14:47:39.209Z,1.10
2019-01-09T14:50:11.559Z,1.42
2019-01-09T14:52:40.804Z,1.07
2019-01-09T14:55:10.548Z,1.47
2019-01-09T14:57:39.598Z,1.22
2019-01-09T15:00:12.650Z,0.80
2019-01-09T15:02:41.739Z,1.17
2019-01-09T15:05:10.902Z,0.80
2019-01-09T15:07:39.802Z,1.05
2019-01-09T15:10:11.944Z,1.20
2019-01-09T15:12:40.951Z,1.10
2019-01-09T15:15:11.937Z,1.02
2019-01-09T15:17:40.946Z,1.07
2019-01-09T15:20:11.702Z,1.00
2019-01-09T15:22:40.746Z,1.02
2019-01-09T15:25:10.969Z,1.10
2019-01-09T15:27:39.934Z,1.00
2019-01-09T15:30:12.792Z,1.10
2019-01-09T15:32:43.022Z,1.20
2019-01-09T15:35:12.594Z,1.12
2019-01-09T15:37:41.490Z,1.20
2019-01-09T15:40:14.227Z,1.17
2019-01-09T15:42:43.126Z,0.98
2019-01-09T15:45:12.240Z,0.95
2019-01-09T15:47:41.124Z,1.25
2019-01-09T15:50:12.420Z,1.00
2019-01-09T15:52:41.311Z,1.42
2019-01-09T15:55:12.247Z,1.12
2019-01-09T15:57:41.242Z,1.02
2019-01-09T16:00:22.084Z,1.55
2019-01-09T16:02:51.114Z,1.10
2019-01-09T16:05:20.351Z,1.07
2019-01-09T16:07:49.778Z,1.25
2019-01-09T16:10:19.482Z,1.30
2019-01-09T16:12:48.551Z,1.02
2019-01-09T16:15:17.758Z,1.40
2019-01-09T16:17:46.812Z,1.10
2019-01-09T16:20:17.414Z,1.05
2019-01-09T16:22:46.889Z,1.40
2019-01-09T16:25:15.910Z,1.17
2019-01-09T16:27:45.286Z,1.27
2019-01-09T16:30:41.374Z,1.25
2019-01-09T16:33:10.355Z,1.20
2019-01-09T16:35:39.264Z,1.50
2019-01-09T16:38:08.249Z,1.10
2019-01-09T16:40:37.228Z,1.60
2019-01-09T16:43:06.199Z,1.40
2019-01-09T16:45:35.129Z,1.40
2019-01-09T16:48:04.550Z,1.00
2019-01-09T16:50:33.890Z,1.30
2019-01-09T16:53:03.110Z,1.02
2019-01-09T16:55:32.454Z,0.95
2019-01-09T16:58:01.409Z,1.15
2019-01-09T17:00:30.887Z,1.33
2019-01-09T17:02:59.888Z,1.12
2019-01-09T17:05:29.020Z,1.17
2019-01-09T17:07:57.924Z,1.42
2019-01-09T17:10:32.318Z,1.83
2019-01-09T17:12:58.030Z,1.10
2019-01-09T17:15:26.964Z,1.27
2019-01-09T17:17:55.926Z,1.40
2019-01-09T17:20:25.247Z,0.95
2019-01-09T17:22:54.265Z,1.37
2019-01-09T17:25:23.566Z,1.60
2019-01-09T17:27:52.813Z,1.20
2019-01-09T17:30:23.879Z,1.95
2019-01-09T17:32:53.207Z,1.62
2019-01-09T17:35:22.248Z,1.77
2019-01-09T17:37:51.246Z,1.40
2019-01-09T17:40:20.588Z,1.47
2019-01-09T17:42:50.008Z,1.55
2019-01-09T17:45:19.087Z,1.50
2019-01-09T17:47:48.111Z,1.65
2019-01-09T17:50:37.287Z,2.20
2019-01-09T17:53:06.619Z,2.52
2019-01-09T17:55:35.642Z,3.07
2019-01-09T17:58:04.631Z,1.77
2019-01-09T18:00:36.007Z,2.27
2019-01-09T18:03:05.532Z,2.50
2019-01-09T18:05:34.551Z,1.47
2019-01-09T18:08:10.472Z,1.52
2019-01-09T18:10:34.630Z,1.40
2019-01-09T18:13:03.704Z,1.85
2019-01-09T18:15:32.669Z,1.20
2019-01-09T18:18:01.694Z,1.60
2019-01-09T18:20:30.881Z,1.73
2019-01-09T18:22:59.894Z,1.60
2019-01-09T18:25:30.310Z,2.13
2019-01-09T18:27:59.275Z,1.80
2019-01-09T18:30:50.826Z,1.72
2019-01-09T18:33:34.467Z,1.45
2019-01-09T18:37:03.003Z,1.87
2019-01-09T18:40:15.016Z,2.05
2019-01-09T18:42:59.070Z,1.70
2019-01-09T18:46:12.721Z,1.83
2019-01-09T18:49:10.910Z,4.97
2019-01-09T18:52:09.397Z,1.60
2019-01-09T18:54:38.651Z,1.85
2019-01-09T18:57:07.979Z,1.70
2019-01-09T18:59:37.686Z,2.15
2019-01-09T19:02:06.778Z,2.10
2019-01-09T19:04:36.230Z,1.72
2019-01-09T19:07:06.106Z,1.07
2019-01-09T19:09:35.124Z,1.20
2019-01-09T19:12:04.447Z,1.17
2019-01-09T19:14:33.609Z,1.30
2019-01-09T19:17:02.782Z,1.53
2019-01-09T19:19:31.963Z,1.32
2019-01-09T19:22:00.955Z,1.17
2019-01-09T19:24:30.239Z,1.05
2019-01-09T19:26:59.237Z,1.40
2019-01-09T19:29:29.495Z,1.20
2019-01-09T19:31:58.826Z,1.10
2019-01-09T19:34:28.383Z,1.45
2019-01-09T19:36:57.260Z,1.25
2019-01-09T19:39:26.506Z,1.40
2019-01-09T19:41:55.790Z,1.15
2019-01-09T19:44:24.786Z,1.45
2019-01-09T19:46:54.205Z,1.40
2019-01-09T19:49:23.387Z,1.60
2019-01-09T19:51:52.372Z,1.20
2019-01-09T19:54:21.319Z,1.30
2019-01-09T19:56:50.241Z,1.20
2019-01-09T19:59:20.069Z,1.70
2019-01-09T20:01:49.169Z,1.23
2019-01-09T20:04:18.488Z,1.70
2019-01-09T20:06:47.441Z,1.35
2019-01-09T20:09:16.410Z,1.57
2019-01-09T20:11:45.405Z,1.80
2019-01-09T20:14:14.425Z,1.60
2019-01-09T20:16:43.430Z,1.97
2019-01-09T20:19:12.490Z,1.45
2019-01-09T20:21:41.607Z,1.22
2019-01-09T20:24:10.924Z,1.25
2019-01-09T20:26:40.200Z,1.33
2019-01-09T20:29:09.347Z,1.70
2019-01-09T20:31:38.574Z,1.52
2019-01-09T20:34:08.075Z,1.25
2019-01-09T20:36:37.471Z,1.80
2019-01-09T20:39:09.250Z,1.45
2019-01-09T20:41:38.267Z,1.83
2019-01-09T20:44:07.483Z,1.52
2019-01-09T20:46:36.482Z,1.65
2019-01-09T20:49:05.578Z,1.67
2019-01-09T20:51:34.715Z,1.83
2019-01-09T20:54:03.739Z,1.22
2019-01-09T20:56:33.069Z,1.50
2019-01-09T20:59:02.041Z,1.30
2019-01-09T21:01:30.931Z,1.70
2019-01-09T21:04:00.265Z,1.40
2019-01-09T21:06:29.197Z,1.37
2019-01-09T21:08:59.736Z,1.60
2019-01-09T21:11:28.939Z,1.30
2019-01-09T21:13:58.025Z,1.45
2019-01-09T21:16:26.914Z,1.27
2019-01-09T21:18:56.393Z,1.40
2019-01-09T21:21:25.321Z,1.43
2019-01-09T21:23:54.567Z,1.30
2019-01-09T21:26:23.742Z,1.70
2019-01-09T21:28:52.731Z,1.72
2019-01-09T21:31:21.793Z,1.70
2019-01-09T21:33:50.729Z,1.57
2019-01-09T21:36:19.807Z,1.90
2019-01-09T21:38:49.102Z,1.55
2019-01-09T21:41:18.100Z,1.40
2019-01-09T21:43:46.973Z,1.65
2019-01-09T21:46:15.819Z,1.53
2019-01-09T21:48:44.852Z,1.62
2019-01-09T21:51:14.263Z,1.53
2019-01-09T21:53:43.272Z,2.25
2019-01-09T21:56:12.408Z,1.77
2019-01-09T21:58:41.583Z,2.10
2019-01-09T22:01:10.719Z,1.70
2019-01-09T22:03:39.847Z,1.95
2019-01-09T22:06:08.966Z,2.17
2019-01-09T22:08:37.952Z,1.60
2019-01-09T22:11:06.928Z,1.50
2019-01-09T22:13:35.839Z,1.30
2019-01-09T22:16:05.271Z,1.40
2019-01-09T22:18:34.180Z,1.67
2019-01-09T22:21:03.185Z,1.37
2019-01-09T22:23:32.170Z,2.10
2019-01-09T22:26:01.132Z,1.60
2019-01-09T22:28:30.049Z,1.62
2019-01-09T22:30:59.035Z,1.40
2019-01-09T22:33:28.267Z,1.50
2019-01-09T22:35:57.652Z,1.52
2019-01-09T22:38:26.473Z,1.55
2019-01-09T22:40:55.606Z,1.62
2019-01-09T22:43:24.814Z,1.75
2019-01-09T22:45:53.746Z,1.57
2019-01-09T22:48:22.747Z,1.55
2019-01-09T22:50:51.698Z,1.47
2019-01-09T22:53:20.726Z,1.70
2019-01-09T22:55:49.655Z,1.77
2019-01-09T22:58:18.877Z,1.72
2019-01-09T23:01:04.637Z,1.40
2019-01-09T23:03:33.814Z,2.00
2019-01-09T23:06:02.706Z,1.70
2019-01-09T23:08:31.576Z,1.80
2019-01-09T23:11:00.479Z,2.03
2019-01-09T23:13:29.743Z,1.75
2019-01-09T23:15:58.633Z,2.22
2019-01-09T23:18:27.661Z,1.90
2019-01-09T23:20:56.927Z,1.93
2019-01-09T23:23:26.037Z,2.20
2019-01-09T23:25:55.302Z,2.63
2019-01-09T23:28:24.228Z,2.60
2019-01-09T23:30:53.830Z,2.07
2019-01-09T23:33:22.727Z,2.30
2019-01-09T23:35:51.840Z,2.00
2019-01-09T23:38:21.247Z,2.20
2019-01-09T23:40:50.184Z,2.37
2019-01-09T23:43:19.185Z,2.40
2019-01-09T23:45:48.170Z,2.20
2019-01-09T23:48:17.479Z,2.00
2019-01-09T23:50:47.003Z,2.47
2019-01-09T23:53:16.040Z,2.12
2019-01-09T23:55:45.023Z,1.90
2019-01-09T23:58:14.233Z,2.15
